Home   Weather   Town of Norway   Past weeks
Flag for USA

Past Weather in Town of Norway, Wisconsin, USA — May 2021

Currently: 79 °F. Broken clouds. (Weather station: Milwaukee / Timmerman, USA). See more current weather

May 2021 Weather in Town of Norway — Graph

°F

High & Low Weather Summary for May 2021

 TemperatureHumidityPressure
High84 °F (May 1, 3:45 pm)94% (May 3, 6:45 pm)30.49 "Hg (May 3, 6:45 pm)
Low32 °F (May 8, 5:55 am)15% (May 13, 4:45 pm)29.49 "Hg (May 2, 6:45 pm)
Average54 °F63%30.12 "Hg
* Reported May 1 12:15 am — May 31 11:55 pm, Town of Norway. Weather by CustomWeather, © 2021

Note: Actual official high and low records may vary slightly from our data, if they occured in-between our weather recording intervals... More about our weather records

Town of Norway Weather History for May 1, 2021

Scroll right to see more
 ConditionsComfort  
Time TempWeatherWind HumidityBarometerVisibility
12:15 am
Sat, May 1
37 °FClear.7 mph75%30.15 "Hg10 mi
12:35 am37 °FClear.7 mph75%30.15 "Hg10 mi
12:55 am37 °FClear.9 mph75%30.14 "Hg10 mi
1:15 am37 °FClear.7 mph75%30.13 "Hg10 mi
1:35 am37 °FClear.8 mph75%30.11 "Hg10 mi
1:55 am37 °FClear.8 mph75%30.11 "Hg10 mi
2:15 am37 °FClear.7 mph75%30.10 "Hg10 mi
2:35 am37 °FClear.7 mph75%30.08 "Hg10 mi
2:55 am37 °FClear.7 mph75%30.07 "Hg10 mi
3:15 am37 °FClear.6 mph75%30.06 "Hg10 mi
3:35 am37 °FClear.6 mph75%30.06 "Hg10 mi
3:55 am37 °FClear.7 mph75%30.05 "Hg10 mi
4:15 am37 °FClear.7 mph75%30.04 "Hg10 mi
4:35 am37 °FClear.7 mph75%30.03 "Hg10 mi
4:55 am37 °FClear.9 mph75%30.02 "Hg10 mi
5:15 am37 °FClear.7 mph75%30.01 "Hg10 mi
5:35 am39 °FClear.8 mph70%30.01 "Hg10 mi
5:55 am39 °FSunny.9 mph70%30.00 "Hg10 mi
6:15 am41 °FSunny.9 mph66%29.99 "Hg10 mi
6:35 am41 °FScattered clouds.10 mph66%29.98 "Hg10 mi
6:55 am43 °FPartly sunny.10 mph66%29.98 "Hg10 mi
7:15 am43 °FOvercast.12 mph61%29.98 "Hg10 mi
7:45 am45 °FScattered clouds.12 mph57%29.96 "Hg10 mi
8:45 am52 °FPartly sunny.20 mph38%29.91 "Hg10 mi
9:45 am55 °FScattered clouds.17 mph33%29.85 "Hg10 mi
10:45 am61 °FSunny.23 mph27%29.80 "Hg10 mi
11:45 am66 °FSunny.25 mph26%29.74 "Hg10 mi
12:45 pm70 °FSunny.24 mph23%29.69 "Hg10 mi
1:45 pm75 °FSunny.21 mph24%29.64 "Hg10 mi
2:45 pm81 °FSunny.25 mph21%29.61 "Hg10 mi
3:45 pm84 °FSunny.28 mph19%29.58 "Hg10 mi
4:45 pm84 °FSunny.29 mph16%29.55 "Hg10 mi
5:45 pm84 °FSunny.25 mph18%29.53 "Hg10 mi
6:45 pm82 °FSunny.18 mph19%29.54 "Hg10 mi
7:45 pm82 °FSunny.21 mph17%29.56 "Hg10 mi
8:55 pm79 °FClear.17 mph21%29.59 "Hg10 mi
9:15 pm77 °FPassing clouds.16 mph22%29.58 "Hg10 mi
9:35 pm77 °FClear.13 mph22%29.59 "Hg10 mi
9:55 pm77 °FClear.15 mph22%29.60 "Hg10 mi
10:15 pm77 °FClear.18 mph24%29.61 "Hg10 mi
10:35 pm77 °FClear.18 mph22%29.62 "Hg10 mi
10:55 pm75 °FClear.22 mph24%29.62 "Hg10 mi
11:15 pm73 °FClear.16 mph27%29.62 "Hg10 mi
11:35 pm73 °FClear.21 mph27%29.61 "Hg10 mi
11:55 pm73 °FClear.16 mph27%29.62 "Hg10 mi
Weather by CustomWeather, © 2021

See weather overview